sensor_id;sensor_type;location;lat;lon;timestamp;pressure;altitude;pressure_sealevel;temperature;humidity
60852;BME280;48553;50.766;2.900;2023-11-19T00:01:16;100394.28;;;11.55;100.00
60852;BME280;48553;50.766;2.900;2023-11-19T00:04:16;100403.31;;;11.56;100.00
60852;BME280;48553;50.766;2.900;2023-11-19T00:07:17;100391.09;;;11.53;100.00
60852;BME280;48553;50.766;2.900;2023-11-19T00:10:17;100399.34;;;11.53;100.00
60852;BME280;48553;50.766;2.900;2023-11-19T00:13:21;100389.50;;;11.52;100.00
60852;BME280;48553;50.766;2.900;2023-11-19T00:16:23;100375.78;;;11.52;100.00
60852;BME280;48553;50.766;2.900;2023-11-19T00:19:23;100365.94;;;11.51;100.00
60852;BME280;48553;50.766;2.900;2023-11-19T00:22:24;100373.72;;;11.49;100.00
60852;BME280;48553;50.766;2.900;2023-11-19T00:25:26;100368.63;;;11.47;100.00
60852;BME280;48553;50.766;2.900;2023-11-19T00:28:26;100370.91;;;11.45;100.00
60852;BME280;48553;50.766;2.900;2023-11-19T00:31:26;100369.66;;;11.43;100.00
60852;BME280;48553;50.766;2.900;2023-11-19T00:34:28;100379.41;;;11.40;100.00
60852;BME280;48553;50.766;2.900;2023-11-19T00:37:28;100376.56;;;11.37;100.00
60852;BME280;48553;50.766;2.900;2023-11-19T00:40:29;100388.69;;;11.36;100.00
60852;BME280;48553;50.766;2.900;2023-11-19T00:43:29;100381.25;;;11.36;100.00
60852;BME280;48553;50.766;2.900;2023-11-19T00:46:29;100371.78;;;11.34;100.00
60852;BME280;48553;50.766;2.900;2023-11-19T00:49:31;100363.53;;;11.34;100.00
60852;BME280;48553;50.766;2.900;2023-11-19T00:52:33;100356.88;;;11.35;100.00
60852;BME280;48553;50.766;2.900;2023-11-19T00:55:33;100346.25;;;11.33;100.00
60852;BME280;48553;50.766;2.900;2023-11-19T00:58:33;100343.88;;;11.32;100.00
60852;BME280;48553;50.766;2.900;2023-11-19T01:01:34;100356.38;;;11.29;100.00
60852;BME280;48553;50.766;2.900;2023-11-19T01:04:35;100357.50;;;11.28;100.00
60852;BME280;48553;50.766;2.900;2023-11-19T01:07:35;100347.69;;;11.27;100.00
60852;BME280;48553;50.766;2.900;2023-11-19T01:10:39;100353.50;;;11.25;100.00
60852;BME280;48553;50.766;2.900;2023-11-19T01:13:39;100352.72;;;11.25;100.00
60852;BME280;48553;50.766;2.900;2023-11-19T01:16:40;100360.94;;;11.25;100.00
60852;BME280;48553;50.766;2.900;2023-11-19T01:19:40;100360.59;;;11.26;100.00
60852;BME280;48553;50.766;2.900;2023-11-19T01:22:40;100368.84;;;11.26;100.00
60852;BME280;48553;50.766;2.900;2023-11-19T01:25:41;100369.19;;;11.25;100.00
60852;BME280;48553;50.766;2.900;2023-11-19T01:28:42;100374.66;;;11.25;100.00
60852;BME280;48553;50.766;2.900;2023-11-19T01:31:46;100379.34;;;11.24;100.00
60852;BME280;48553;50.766;2.900;2023-11-19T01:34:47;100375.00;;;11.23;100.00
60852;BME280;48553;50.766;2.900;2023-11-19T01:37:47;100374.56;;;11.21;100.00
60852;BME280;48553;50.766;2.900;2023-11-19T01:40:48;100362.78;;;11.21;100.00
60852;BME280;48553;50.766;2.900;2023-11-19T01:43:49;100364.41;;;11.22;100.00
60852;BME280;48553;50.766;2.900;2023-11-19T01:46:49;100362.00;;;11.20;100.00
60852;BME280;48553;50.766;2.900;2023-11-19T01:49:50;100366.69;;;11.20;100.00
60852;BME280;48553;50.766;2.900;2023-11-19T01:52:54;100363.13;;;11.19;100.00
60852;BME280;48553;50.766;2.900;2023-11-19T01:55:58;100365.44;;;11.17;100.00
60852;BME280;48553;50.766;2.900;2023-11-19T01:58:58;100366.25;;;11.18;100.00
60852;BME280;48553;50.766;2.900;2023-11-19T02:01:59;100352.06;;;11.16;100.00
60852;BME280;48553;50.766;2.900;2023-11-19T02:05:00;100355.94;;;11.15;100.00
60852;BME280;48553;50.766;2.900;2023-11-19T02:08:01;100357.09;;;11.14;100.00
60852;BME280;48553;50.766;2.900;2023-11-19T02:11:01;100359.41;;;11.12;100.00
60852;BME280;48553;50.766;2.900;2023-11-19T02:14:02;100346.84;;;11.11;100.00
60852;BME280;48553;50.766;2.900;2023-11-19T02:17:05;100342.84;;;11.08;100.00
60852;BME280;48553;50.766;2.900;2023-11-19T02:20:06;100340.47;;;11.06;100.00
60852;BME280;48553;50.766;2.900;2023-11-19T02:23:13;100349.72;;;11.02;100.00
60852;BME280;48553;50.766;2.900;2023-11-19T02:26:24;100345.38;;;11.01;100.00
60852;BME280;48553;50.766;2.900;2023-11-19T02:29:27;100344.59;;;11.00;100.00
60852;BME280;48553;50.766;2.900;2023-11-19T02:32:27;100353.53;;;10.97;100.00
60852;BME280;48553;50.766;2.900;2023-11-19T02:35:28;100347.66;;;10.99;100.00
60852;BME280;48553;50.766;2.900;2023-11-19T02:38:31;100334.41;;;11.01;100.00
60852;BME280;48553;50.766;2.900;2023-11-19T02:41:32;100343.34;;;10.98;100.00
60852;BME280;48553;50.766;2.900;2023-11-19T02:44:32;100335.47;;;10.96;100.00
60852;BME280;48553;50.766;2.900;2023-11-19T02:47:33;100338.13;;;10.93;100.00
60852;BME280;48553;50.766;2.900;2023-11-19T02:50:33;100322.00;;;10.91;100.00
60852;BME280;48553;50.766;2.900;2023-11-19T02:53:34;100324.75;;;10.91;100.00
60852;BME280;48553;50.766;2.900;2023-11-19T02:56:34;100333.75;;;10.92;100.00
60852;BME280;48553;50.766;2.900;2023-11-19T02:59:38;100335.38;;;10.93;100.00
60852;BME280;48553;50.766;2.900;2023-11-19T03:02:40;100337.28;;;10.92;100.00
60852;BME280;48553;50.766;2.900;2023-11-19T03:05:49;100329.44;;;10.91;100.00
60852;BME280;48553;50.766;2.900;2023-11-19T03:08:49;100355.69;;;10.92;100.00
60852;BME280;48553;50.766;2.900;2023-11-19T03:11:50;100361.19;;;10.92;100.00
60852;BME280;48553;50.766;2.900;2023-11-19T03:14:50;100360.06;;;10.93;100.00
60852;BME280;48553;50.766;2.900;2023-11-19T03:17:51;100361.97;;;10.92;100.00
60852;BME280;48553;50.766;2.900;2023-11-19T03:20:52;100365.06;;;10.91;100.00
60852;BME280;48553;50.766;2.900;2023-11-19T03:23:52;100353.66;;;10.89;100.00
60852;BME280;48553;50.766;2.900;2023-11-19T03:26:52;100350.81;;;10.85;100.00
60852;BME280;48553;50.766;2.900;2023-11-19T03:29:53;100339.38;;;10.83;100.00
60852;BME280;48553;50.766;2.900;2023-11-19T03:32:54;100338.59;;;10.82;100.00
60852;BME280;48553;50.766;2.900;2023-11-19T03:35:56;100343.53;;;10.77;100.00
60852;BME280;48553;50.766;2.900;2023-11-19T03:38:57;100345.03;;;10.74;100.00
60852;BME280;48553;50.766;2.900;2023-11-19T03:41:57;100338.28;;;10.72;100.00
60852;BME280;48553;50.766;2.900;2023-11-19T03:44:57;100353.13;;;10.71;100.00
60852;BME280;48553;50.766;2.900;2023-11-19T03:47:58;100351.44;;;10.66;100.00
60852;BME280;48553;50.766;2.900;2023-11-19T03:50:58;100352.94;;;10.63;100.00
60852;BME280;48553;50.766;2.900;2023-11-19T03:53:59;100355.22;;;10.61;100.00
60852;BME280;48553;50.766;2.900;2023-11-19T03:56:59;100352.00;;;10.59;100.00
60852;BME280;48553;50.766;2.900;2023-11-19T04:00:00;100360.56;;;10.58;100.00
60852;BME280;48553;50.766;2.900;2023-11-19T04:03:05;100360.13;;;10.56;100.00
60852;BME280;48553;50.766;2.900;2023-11-19T04:06:06;100364.00;;;10.55;100.00
60852;BME280;48553;50.766;2.900;2023-11-19T04:09:06;100351.81;;;10.52;100.00
60852;BME280;48553;50.766;2.900;2023-11-19T04:12:07;100365.03;;;10.50;100.00
60852;BME280;48553;50.766;2.900;2023-11-19T04:15:08;100367.78;;;10.50;100.00
60852;BME280;48553;50.766;2.900;2023-11-19T04:18:08;100370.19;;;10.52;100.00
60852;BME280;48553;50.766;2.900;2023-11-19T04:21:09;100377.94;;;10.50;100.00
60852;BME280;48553;50.766;2.900;2023-11-19T04:24:11;100378.41;;;10.52;100.00
60852;BME280;48553;50.766;2.900;2023-11-19T04:27:13;100374.50;;;10.53;100.00
60852;BME280;48553;50.766;2.900;2023-11-19T04:30:14;100381.94;;;10.52;100.00
60852;BME280;48553;50.766;2.900;2023-11-19T04:33:14;100363.22;;;10.54;100.00
60852;BME280;48553;50.766;2.900;2023-11-19T04:36:18;100368.56;;;10.51;100.00
60852;BME280;48553;50.766;2.900;2023-11-19T04:39:19;100368.13;;;10.49;100.00
60852;BME280;48553;50.766;2.900;2023-11-19T04:42:22;100375.09;;;10.46;100.00
60852;BME280;48553;50.766;2.900;2023-11-19T04:45:22;100378.63;;;10.47;100.00
60852;BME280;48553;50.766;2.900;2023-11-19T04:48:23;100384.47;;;10.45;100.00
60852;BME280;48553;50.766;2.900;2023-11-19T04:51:24;100382.38;;;10.42;100.00
60852;BME280;48553;50.766;2.900;2023-11-19T04:54:24;100372.25;;;10.42;100.00
60852;BME280;48553;50.766;2.900;2023-11-19T04:57:24;100384.34;;;10.41;100.00
60852;BME280;48553;50.766;2.900;2023-11-19T05:00:25;100386.53;;;10.36;100.00
60852;BME280;48553;50.766;2.900;2023-11-19T05:03:26;100384.25;;;10.38;100.00
60852;BME280;48553;50.766;2.900;2023-11-19T05:06:30;100387.19;;;10.33;100.00
60852;BME280;48553;50.766;2.900;2023-11-19T05:09:31;100381.72;;;10.33;100.00
60852;BME280;48553;50.766;2.900;2023-11-19T05:12:32;100367.22;;;10.32;100.00
60852;BME280;48553;50.766;2.900;2023-11-19T05:15:32;100364.50;;;10.32;100.00
60852;BME280;48553;50.766;2.900;2023-11-19T05:18:33;100368.38;;;10.31;100.00
60852;BME280;48553;50.766;2.900;2023-11-19T05:21:34;100369.50;;;10.30;100.00
60852;BME280;48553;50.766;2.900;2023-11-19T05:24:34;100377.22;;;10.28;100.00
60852;BME280;48553;50.766;2.900;2023-11-19T05:27:36;100394.50;;;10.29;100.00
60852;BME280;48553;50.766;2.900;2023-11-19T05:30:37;100385.00;;;10.26;100.00
60852;BME280;48553;50.766;2.900;2023-11-19T05:33:37;100387.28;;;10.24;100.00
60852;BME280;48553;50.766;2.900;2023-11-19T05:36:39;100382.63;;;10.24;100.00
60852;BME280;48553;50.766;2.900;2023-11-19T05:39:39;100373.47;;;10.20;100.00
60852;BME280;48553;50.766;2.900;2023-11-19T05:42:43;100372.69;;;10.20;100.00
60852;BME280;48553;50.766;2.900;2023-11-19T05:45:43;100374.28;;;10.21;100.00
60852;BME280;48553;50.766;2.900;2023-11-19T05:48:44;100389.91;;;10.20;100.00
60852;BME280;48553;50.766;2.900;2023-11-19T05:51:46;100373.81;;;10.19;100.00
60852;BME280;48553;50.766;2.900;2023-11-19T05:54:47;100373.03;;;10.18;100.00
60852;BME280;48553;50.766;2.900;2023-11-19T05:57:51;100375.75;;;10.18;100.00
60852;BME280;48553;50.766;2.900;2023-11-19T06:00:52;100367.53;;;10.18;100.00
60852;BME280;48553;50.766;2.900;2023-11-19T06:03:53;100370.63;;;10.17;100.00
60852;BME280;48553;50.766;2.900;2023-11-19T06:06:53;100380.78;;;10.16;100.00
60852;BME280;48553;50.766;2.900;2023-11-19T06:09:55;100364.22;;;10.13;100.00
60852;BME280;48553;50.766;2.900;2023-11-19T06:12:55;100362.75;;;10.15;100.00
60852;BME280;48553;50.766;2.900;2023-11-19T06:15:57;100365.84;;;10.14;100.00
60852;BME280;48553;50.766;2.900;2023-11-19T06:18:57;100380.66;;;10.13;100.00
60852;BME280;48553;50.766;2.900;2023-11-19T06:21:58;100402.22;;;10.14;100.00
60852;BME280;48553;50.766;2.900;2023-11-19T06:24:58;100400.28;;;10.15;100.00
60852;BME280;48553;50.766;2.900;2023-11-19T06:28:00;100397.09;;;10.13;100.00
60852;BME280;48553;50.766;2.900;2023-11-19T06:31:00;100400.63;;;10.13;100.00
60852;BME280;48553;50.766;2.900;2023-11-19T06:34:01;100394.34;;;10.13;100.00
60852;BME280;48553;50.766;2.900;2023-11-19T06:37:01;100394.69;;;10.11;100.00
60852;BME280;48553;50.766;2.900;2023-11-19T06:40:04;100392.75;;;10.12;100.00
60852;BME280;48553;50.766;2.900;2023-11-19T06:43:05;100388.06;;;10.12;100.00
60852;BME280;48553;50.766;2.900;2023-11-19T06:46:15;100397.44;;;10.11;100.00
60852;BME280;48553;50.766;2.900;2023-11-19T06:49:16;100397.91;;;10.13;100.00
60852;BME280;48553;50.766;2.900;2023-11-19T06:52:16;100401.44;;;10.14;100.00
60852;BME280;48553;50.766;2.900;2023-11-19T06:55:17;100391.59;;;10.13;100.00
60852;BME280;48553;50.766;2.900;2023-11-19T06:58:17;100396.28;;;10.12;100.00
60852;BME280;48553;50.766;2.900;2023-11-19T07:01:18;100387.75;;;10.14;100.00
60852;BME280;48553;50.766;2.900;2023-11-19T07:04:19;100384.53;;;10.12;100.00
60852;BME280;48553;50.766;2.900;2023-11-19T07:07:19;100386.94;;;10.13;100.00
60852;BME280;48553;50.766;2.900;2023-11-19T07:10:20;100393.22;;;10.14;100.00
60852;BME280;48553;50.766;2.900;2023-11-19T07:13:20;100398.69;;;10.14;100.00
60852;BME280;48553;50.766;2.900;2023-11-19T07:16:21;100401.75;;;10.12;100.00
60852;BME280;48553;50.766;2.900;2023-11-19T07:19:21;100409.19;;;10.12;100.00
60852;BME280;48553;50.766;2.900;2023-11-19T07:22:22;100402.56;;;10.13;100.00
60852;BME280;48553;50.766;2.900;2023-11-19T07:25:23;100401.75;;;10.12;100.00
60852;BME280;48553;50.766;2.900;2023-11-19T07:28:23;100418.66;;;10.14;100.00
60852;BME280;48553;50.766;2.900;2023-11-19T07:31:25;100409.66;;;10.14;100.00
60852;BME280;48553;50.766;2.900;2023-11-19T07:34:25;100411.22;;;10.15;100.00
60852;BME280;48553;50.766;2.900;2023-11-19T07:37:26;100407.38;;;10.16;100.00
60852;BME280;48553;50.766;2.900;2023-11-19T07:40:26;100408.63;;;10.18;100.00
60852;BME280;48553;50.766;2.900;2023-11-19T07:43:27;100406.00;;;10.22;100.00
60852;BME280;48553;50.766;2.900;2023-11-19T07:46:27;100414.00;;;10.27;100.00
60852;BME280;48553;50.766;2.900;2023-11-19T07:49:27;100415.13;;;10.26;100.00
60852;BME280;48553;50.766;2.900;2023-11-19T07:52:28;100415.47;;;10.24;100.00
60852;BME280;48553;50.766;2.900;2023-11-19T07:55:29;100410.00;;;10.24;100.00
60852;BME280;48553;50.766;2.900;2023-11-19T07:58:29;100419.00;;;10.25;100.00
60852;BME280;48553;50.766;2.900;2023-11-19T08:01:30;100425.28;;;10.25;100.00
60852;BME280;48553;50.766;2.900;2023-11-19T08:04:30;100419.28;;;10.32;100.00
60852;BME280;48553;50.766;2.900;2023-11-19T08:07:30;100418.03;;;10.30;100.00
60852;BME280;48553;50.766;2.900;2023-11-19T08:10:31;100416.75;;;10.27;100.00
60852;BME280;48553;50.766;2.900;2023-11-19T08:13:33;100420.59;;;10.26;100.00
60852;BME280;48553;50.766;2.900;2023-11-19T08:16:34;100420.59;;;10.26;100.00
60852;BME280;48553;50.766;2.900;2023-11-19T08:19:34;100422.69;;;10.29;100.00
60852;BME280;48553;50.766;2.900;2023-11-19T08:22:35;100416.41;;;10.29;100.00
60852;BME280;48553;50.766;2.900;2023-11-19T08:25:35;100420.44;;;10.31;100.00
60852;BME280;48553;50.766;2.900;2023-11-19T08:28:36;100418.47;;;10.32;100.00
60852;BME280;48553;50.766;2.900;2023-11-19T08:31:37;100403.75;;;10.36;100.00
60852;BME280;48553;50.766;2.900;2023-11-19T08:34:38;100429.78;;;10.42;100.00
60852;BME280;48553;50.766;2.900;2023-11-19T08:37:38;100410.25;;;10.56;100.00
60852;BME280;48553;50.766;2.900;2023-11-19T08:40:38;100423.69;;;10.86;100.00
60852;BME280;48553;50.766;2.900;2023-11-19T08:43:39;100409.41;;;10.93;100.00
60852;BME280;48553;50.766;2.900;2023-11-19T08:46:49;100403.84;;;11.17;100.00
60852;BME280;48553;50.766;2.900;2023-11-19T08:49:53;100418.44;;;11.21;100.00
60852;BME280;48553;50.766;2.900;2023-11-19T08:52:53;100417.81;;;11.40;100.00
60852;BME280;48553;50.766;2.900;2023-11-19T08:55:54;100414.56;;;11.50;100.00
60852;BME280;48553;50.766;2.900;2023-11-19T08:58:54;100411.84;;;11.66;100.00
60852;BME280;48553;50.766;2.900;2023-11-19T09:01:54;100403.72;;;11.42;100.00
60852;BME280;48553;50.766;2.900;2023-11-19T09:04:55;100411.22;;;11.57;100.00
60852;BME280;48553;50.766;2.900;2023-11-19T09:07:55;100411.59;;;11.71;100.00
60852;BME280;48553;50.766;2.900;2023-11-19T09:10:56;100419.06;;;11.87;100.00
60852;BME280;48553;50.766;2.900;2023-11-19T09:13:56;100403.69;;;11.98;100.00
60852;BME280;48553;50.766;2.900;2023-11-19T09:16:57;100417.72;;;11.81;100.00
60852;BME280;48553;50.766;2.900;2023-11-19T09:19:58;100404.50;;;11.70;100.00
60852;BME280;48553;50.766;2.900;2023-11-19T09:22:58;100402.56;;;11.87;100.00
60852;BME280;48553;50.766;2.900;2023-11-19T09:25:59;100400.25;;;11.73;100.00
60852;BME280;48553;50.766;2.900;2023-11-19T09:29:00;100407.16;;;11.67;100.00
60852;BME280;48553;50.766;2.900;2023-11-19T09:32:01;100399.72;;;11.67;100.00
60852;BME280;48553;50.766;2.900;2023-11-19T09:35:01;100424.34;;;11.64;100.00
60852;BME280;48553;50.766;2.900;2023-11-19T09:38:02;100402.19;;;11.57;100.00
60852;BME280;48553;50.766;2.900;2023-11-19T09:41:05;100406.63;;;11.61;100.00
60852;BME280;48553;50.766;2.900;2023-11-19T09:44:09;100402.63;;;11.59;100.00
60852;BME280;48553;50.766;2.900;2023-11-19T09:47:14;100419.69;;;11.52;100.00
60852;BME280;48553;50.766;2.900;2023-11-19T09:50:17;100414.56;;;11.50;100.00
60852;BME280;48553;50.766;2.900;2023-11-19T09:53:18;100422.72;;;11.47;100.00
60852;BME280;48553;50.766;2.900;2023-11-19T09:56:20;100411.28;;;11.45;100.00
60852;BME280;48553;50.766;2.900;2023-11-19T09:59:22;100427.75;;;11.45;100.00
60852;BME280;48553;50.766;2.900;2023-11-19T10:02:23;100441.81;;;11.43;100.00
60852;BME280;48553;50.766;2.900;2023-11-19T10:05:25;100436.81;;;11.61;100.00
60852;BME280;48553;50.766;2.900;2023-11-19T10:08:26;100421.78;;;11.87;100.00
60852;BME280;48553;50.766;2.900;2023-11-19T10:11:26;100415.38;;;11.95;100.00
60852;BME280;48553;50.766;2.900;2023-11-19T10:14:28;100415.28;;;12.23;100.00
60852;BME280;48553;50.766;2.900;2023-11-19T10:17:34;100422.44;;;12.60;100.00
60852;BME280;48553;50.766;2.900;2023-11-19T10:20:40;100419.00;;;12.82;100.00
60852;BME280;48553;50.766;2.900;2023-11-19T10:23:48;100417.59;;;12.88;100.00
60852;BME280;48553;50.766;2.900;2023-11-19T10:26:50;100424.91;;;13.00;100.00
60852;BME280;48553;50.766;2.900;2023-11-19T10:29:51;100418.03;;;13.10;100.00
60852;BME280;48553;50.766;2.900;2023-11-19T10:33:13;100415.06;;;13.19;100.00
60852;BME280;48553;50.766;2.900;2023-11-19T10:36:21;100395.88;;;13.03;100.00
60852;BME280;48553;50.766;2.900;2023-11-19T10:39:21;100390.13;;;12.92;100.00
60852;BME280;48553;50.766;2.900;2023-11-19T10:42:24;100388.06;;;13.05;100.00
60852;BME280;48553;50.766;2.900;2023-11-19T10:45:25;100369.03;;;13.15;100.00
60852;BME280;48553;50.766;2.900;2023-11-19T10:48:25;100368.59;;;13.33;100.00
60852;BME280;48553;50.766;2.900;2023-11-19T10:51:26;100355.47;;;13.46;100.00
60852;BME280;48553;50.766;2.900;2023-11-19T10:54:27;100374.81;;;13.49;100.00
60852;BME280;48553;50.766;2.900;2023-11-19T10:57:30;100366.78;;;13.41;100.00
60852;BME280;48553;50.766;2.900;2023-11-19T11:00:50;100379.16;;;13.11;100.00
60852;BME280;48553;50.766;2.900;2023-11-19T11:03:52;100381.88;;;12.92;100.00
60852;BME280;48553;50.766;2.900;2023-11-19T11:06:54;100382.38;;;12.78;100.00
60852;BME280;48553;50.766;2.900;2023-11-19T11:09:59;100376.13;;;12.62;100.00
60852;BME280;48553;50.766;2.900;2023-11-19T11:13:03;100402.22;;;12.52;100.00
60852;BME280;48553;50.766;2.900;2023-11-19T11:16:04;100397.72;;;12.44;100.00
60852;BME280;48553;50.766;2.900;2023-11-19T11:19:07;100392.34;;;12.31;100.00
60852;BME280;48553;50.766;2.900;2023-11-19T11:22:10;100378.44;;;12.24;100.00
60852;BME280;48553;50.766;2.900;2023-11-19T11:25:46;100392.50;;;12.23;100.00
60852;BME280;48553;50.766;2.900;2023-11-19T11:29:04;100390.78;;;12.50;100.00
60852;BME280;48553;50.766;2.900;2023-11-19T11:35:43;100369.31;;;12.56;100.00
60852;BME280;48553;50.766;2.900;2023-11-19T11:38:50;100370.19;;;12.60;100.00
60852;BME280;48553;50.766;2.900;2023-11-19T11:45:38;100381.84;;;12.37;100.00
60852;BME280;48553;50.766;2.900;2023-11-19T11:48:44;100380.19;;;12.32;100.00
60852;BME280;48553;50.766;2.900;2023-11-19T11:54:49;100357.53;;;12.20;100.00
60852;BME280;48553;50.766;2.900;2023-11-19T11:57:50;100378.22;;;12.17;100.00
60852;BME280;48553;50.766;2.900;2023-11-19T12:00:51;100373.81;;;12.12;100.00
60852;BME280;48553;50.766;2.900;2023-11-19T12:03:52;100373.41;;;12.10;100.00
60852;BME280;48553;50.766;2.900;2023-11-19T12:07:14;100368.41;;;12.16;100.00
60852;BME280;48553;50.766;2.900;2023-11-19T12:10:15;100356.06;;;12.26;100.00
60852;BME280;48553;50.766;2.900;2023-11-19T12:13:17;100358.31;;;12.20;100.00
60852;BME280;48553;50.766;2.900;2023-11-19T12:16:19;100358.31;;;12.20;100.00
60852;BME280;48553;50.766;2.900;2023-11-19T12:19:19;100348.41;;;12.16;100.00
60852;BME280;48553;50.766;2.900;2023-11-19T12:22:20;100361.69;;;12.14;100.00
60852;BME280;48553;50.766;2.900;2023-11-19T12:25:21;100349.19;;;12.16;100.00
60852;BME280;48553;50.766;2.900;2023-11-19T12:28:22;100355.22;;;12.22;100.00
60852;BME280;48553;50.766;2.900;2023-11-19T12:31:24;100348.47;;;12.19;100.00
60852;BME280;48553;50.766;2.900;2023-11-19T12:34:24;100336.69;;;12.19;100.00
60852;BME280;48553;50.766;2.900;2023-11-19T12:37:27;100345.66;;;12.16;100.00
60852;BME280;48553;50.766;2.900;2023-11-19T12:40:27;100342.00;;;12.11;100.00
60852;BME280;48553;50.766;2.900;2023-11-19T12:43:29;100345.81;;;12.07;100.00
60852;BME280;48553;50.766;2.900;2023-11-19T12:46:29;100346.09;;;12.02;100.00
60852;BME280;48553;50.766;2.900;2023-11-19T12:49:30;100337.03;;;12.01;100.00
60852;BME280;48553;50.766;2.900;2023-11-19T12:52:30;100344.03;;;11.99;100.00
60852;BME280;48553;50.766;2.900;2023-11-19T12:55:31;100328.19;;;11.92;100.00
60852;BME280;48553;50.766;2.900;2023-11-19T12:58:35;100341.50;;;11.90;100.00
60852;BME280;48553;50.766;2.900;2023-11-19T13:01:36;100343.34;;;11.86;100.00
60852;BME280;48553;50.766;2.900;2023-11-19T13:04:38;100340.59;;;11.86;100.00
60852;BME280;48553;50.766;2.900;2023-11-19T13:07:39;100342.09;;;11.83;100.00
60852;BME280;48553;50.766;2.900;2023-11-19T13:13:59;100343.84;;;11.76;100.00
60852;BME280;48553;50.766;2.900;2023-11-19T13:16:59;100354.75;;;11.72;100.00
60852;BME280;48553;50.766;2.900;2023-11-19T13:20:00;100348.44;;;11.71;100.00
60852;BME280;48553;50.766;2.900;2023-11-19T13:23:03;100355.53;;;11.73;100.00
60852;BME280;48553;50.766;2.900;2023-11-19T13:26:04;100344.56;;;11.73;100.00
60852;BME280;48553;50.766;2.900;2023-11-19T13:29:05;100343.56;;;11.81;100.00
60852;BME280;48553;50.766;2.900;2023-11-19T13:32:05;100353.41;;;11.82;100.00
60852;BME280;48553;50.766;2.900;2023-11-19T13:35:06;100338.47;;;11.79;100.00
60852;BME280;48553;50.766;2.900;2023-11-19T13:38:08;100338.47;;;11.79;100.00
60852;BME280;48553;50.766;2.900;2023-11-19T13:41:09;100344.28;;;11.78;100.00
60852;BME280;48553;50.766;2.900;2023-11-19T13:44:10;100353.31;;;11.78;100.00
60852;BME280;48553;50.766;2.900;2023-11-19T13:47:11;100343.41;;;11.74;100.00
60852;BME280;48553;50.766;2.900;2023-11-19T13:50:15;100335.16;;;11.74;100.00
60852;BME280;48553;50.766;2.900;2023-11-19T13:53:16;100340.31;;;11.75;100.00
60852;BME280;48553;50.766;2.900;2023-11-19T13:56:17;100338.72;;;11.74;100.00
60852;BME280;48553;50.766;2.900;2023-11-19T13:59:17;100326.47;;;11.71;100.00
60852;BME280;48553;50.766;2.900;2023-11-19T14:02:18;100324.91;;;11.70;100.00
60852;BME280;48553;50.766;2.900;2023-11-19T14:05:18;100329.22;;;11.71;100.00
60852;BME280;48553;50.766;2.900;2023-11-19T14:08:19;100312.69;;;11.68;100.00
60852;BME280;48553;50.766;2.900;2023-11-19T14:11:19;100318.97;;;11.68;100.00
60852;BME280;48553;50.766;2.900;2023-11-19T14:14:19;100318.63;;;11.70;100.00
60852;BME280;48553;50.766;2.900;2023-11-19T14:17:20;100293.81;;;11.66;100.00
60852;BME280;48553;50.766;2.900;2023-11-19T14:20:21;100296.91;;;11.65;100.00
60852;BME280;48553;50.766;2.900;2023-11-19T14:23:21;100297.28;;;11.63;100.00
60852;BME280;48553;50.766;2.900;2023-11-19T14:26:22;100299.66;;;11.65;100.00
60852;BME280;48553;50.766;2.900;2023-11-19T14:29:22;100291.34;;;11.61;100.00
60852;BME280;48553;50.766;2.900;2023-11-19T14:32:22;100295.22;;;11.60;100.00
60852;BME280;48553;50.766;2.900;2023-11-19T14:35:23;100299.56;;;11.61;100.00
60852;BME280;48553;50.766;2.900;2023-11-19T14:38:25;100297.53;;;11.58;100.00
60852;BME280;48553;50.766;2.900;2023-11-19T14:41:25;100295.94;;;11.57;100.00
60852;BME280;48553;50.766;2.900;2023-11-19T14:44:26;100299.41;;;11.54;100.00
60852;BME280;48553;50.766;2.900;2023-11-19T14:47:27;100291.50;;;11.53;100.00
60852;BME280;48553;50.766;2.900;2023-11-19T14:50:27;100279.75;;;11.52;100.00
60852;BME280;48553;50.766;2.900;2023-11-19T14:53:28;100282.03;;;11.50;100.00
60852;BME280;48553;50.766;2.900;2023-11-19T14:56:28;100283.63;;;11.51;100.00
60852;BME280;48553;50.766;2.900;2023-11-19T14:59:29;100280.81;;;11.47;100.00
60852;BME280;48553;50.766;2.900;2023-11-19T15:02:29;100292.91;;;11.46;100.00
60852;BME280;48553;50.766;2.900;2023-11-19T15:05:29;100303.88;;;11.46;100.00
60852;BME280;48553;50.766;2.900;2023-11-19T15:08:30;100308.59;;;11.46;100.00
60852;BME280;48553;50.766;2.900;2023-11-19T15:11:31;100287.78;;;11.45;100.00
60852;BME280;48553;50.766;2.900;2023-11-19T15:14:31;100294.34;;;11.40;100.00
60852;BME280;48553;50.766;2.900;2023-11-19T15:17:32;100293.19;;;11.41;100.00
60852;BME280;48553;50.766;2.900;2023-11-19T15:20:33;100299.81;;;11.40;100.00
60852;BME280;48553;50.766;2.900;2023-11-19T15:23:33;100302.47;;;11.37;100.00
60852;BME280;48553;50.766;2.900;2023-11-19T15:26:35;100300.97;;;11.39;100.00
60852;BME280;48553;50.766;2.900;2023-11-19T15:29:35;100311.88;;;11.36;100.00
60852;BME280;48553;50.766;2.900;2023-11-19T15:32:36;100311.75;;;11.32;100.00
60852;BME280;48553;50.766;2.900;2023-11-19T15:35:36;100303.88;;;11.31;100.00
60852;BME280;48553;50.766;2.900;2023-11-19T15:38:37;100312.81;;;11.27;100.00
60852;BME280;48553;50.766;2.900;2023-11-19T15:41:37;100306.16;;;11.28;100.00
60852;BME280;48553;50.766;2.900;2023-11-19T15:44:38;100313.59;;;11.28;100.00
60852;BME280;48553;50.766;2.900;2023-11-19T15:47:39;100323.00;;;11.27;100.00
60852;BME280;48553;50.766;2.900;2023-11-19T15:50:40;100312.34;;;11.25;100.00